createdAt,value
2022-12-03T00:02:12.750Z,1.70
2022-12-03T00:04:39.406Z,1.70
2022-12-03T00:07:05.977Z,1.80
2022-12-03T00:09:32.559Z,1.80
2022-12-03T00:11:59.216Z,1.80
2022-12-03T00:14:25.861Z,1.80
2022-12-03T00:16:52.572Z,1.90
2022-12-03T00:19:19.175Z,1.80
2022-12-03T00:21:45.753Z,1.80
2022-12-03T00:24:12.411Z,1.80
2022-12-03T00:26:39.022Z,1.80
2022-12-03T00:29:05.665Z,1.80
2022-12-03T00:31:32.330Z,1.80
2022-12-03T00:37:40.373Z,1.70
2022-12-03T00:40:07.769Z,1.80
2022-12-03T00:42:34.409Z,1.70
2022-12-03T00:45:01.115Z,1.70
2022-12-03T00:47:27.786Z,1.80
2022-12-03T00:49:54.383Z,1.70
2022-12-03T00:52:21.100Z,1.70
2022-12-03T00:54:47.793Z,1.70
2022-12-03T00:57:14.522Z,1.70
2022-12-03T00:59:41.232Z,1.70
2022-12-03T01:02:08.058Z,1.80
2022-12-03T01:04:34.881Z,1.70
2022-12-03T01:07:01.697Z,1.70
2022-12-03T01:09:28.301Z,1.70
2022-12-03T01:11:55.007Z,1.70
2022-12-03T01:14:21.897Z,1.70
2022-12-03T01:16:49.637Z,1.70
2022-12-03T01:19:19.298Z,1.70
2022-12-03T01:21:49.609Z,1.70
2022-12-03T01:24:17.090Z,1.70
2022-12-03T01:26:43.755Z,1.70
2022-12-03T01:29:10.716Z,1.70
2022-12-03T01:31:55.811Z,1.70
2022-12-03T01:34:22.507Z,1.70
2022-12-03T01:36:49.170Z,1.80
2022-12-03T01:39:15.815Z,1.70
2022-12-03T01:41:42.576Z,1.70
2022-12-03T01:44:18.719Z,1.70
2022-12-03T01:46:46.460Z,1.60
2022-12-03T01:49:18.406Z,1.60
2022-12-03T01:51:45.922Z,1.60
2022-12-03T01:54:22.321Z,1.60
2022-12-03T01:56:49.525Z,1.60
2022-12-03T01:59:19.766Z,1.50
2022-12-03T02:01:46.536Z,1.60
2022-12-03T02:04:16.311Z,1.60
2022-12-03T02:06:44.482Z,1.60
2022-12-03T02:09:12.458Z,1.60
2022-12-03T02:11:43.461Z,1.50
2022-12-03T02:14:20.005Z,1.50
2022-12-03T02:16:47.007Z,1.40
2022-12-03T02:19:26.555Z,1.40
2022-12-03T02:22:16.236Z,1.40
2022-12-03T02:25:13.682Z,1.40
2022-12-03T02:27:40.702Z,1.40
2022-12-03T02:30:08.872Z,1.40
2022-12-03T02:32:35.680Z,1.40
2022-12-03T02:35:02.332Z,1.40
2022-12-03T02:37:36.656Z,1.40
2022-12-03T02:40:09.106Z,1.40
2022-12-03T02:42:36.007Z,1.40
2022-12-03T02:45:08.564Z,1.40
2022-12-03T02:47:48.270Z,1.40
2022-12-03T02:50:20.108Z,1.40
2022-12-03T02:52:48.065Z,1.50
2022-12-03T02:55:17.491Z,1.40
2022-12-03T02:57:46.215Z,1.40
2022-12-03T03:00:13.839Z,1.40
2022-12-03T03:02:41.804Z,1.40
2022-12-03T03:05:10.568Z,1.40
2022-12-03T03:07:38.628Z,1.40
2022-12-03T03:10:07.171Z,1.30
2022-12-03T03:12:39.004Z,1.30
2022-12-03T03:15:07.565Z,1.40
2022-12-03T03:17:35.456Z,1.40
2022-12-03T03:20:03.822Z,1.40
2022-12-03T03:22:35.232Z,1.50
2022-12-03T03:25:02.673Z,1.50
2022-12-03T03:27:29.628Z,1.50
2022-12-03T03:29:58.259Z,1.60
2022-12-03T03:32:26.746Z,1.60
2022-12-03T03:34:53.906Z,1.50
2022-12-03T03:37:20.723Z,1.50
2022-12-03T03:43:37.456Z,1.40
2022-12-03T03:46:05.252Z,1.40
2022-12-03T03:48:34.120Z,1.40
2022-12-03T03:51:03.665Z,1.40
2022-12-03T03:53:30.875Z,1.40
2022-12-03T03:55:57.508Z,1.40
2022-12-03T03:58:24.232Z,1.40
2022-12-03T04:00:51.922Z,1.40
2022-12-03T04:03:18.575Z,1.40
2022-12-03T04:05:45.278Z,1.50
2022-12-03T04:08:12.020Z,1.50
2022-12-03T04:10:57.553Z,1.50
2022-12-03T04:13:24.149Z,1.60
2022-12-03T04:15:50.770Z,1.60
2022-12-03T04:18:36.038Z,1.50
2022-12-03T04:21:21.498Z,1.50
2022-12-03T04:23:48.075Z,1.50
2022-12-03T04:26:33.251Z,1.50
2022-12-03T04:28:59.895Z,1.50
2022-12-03T04:31:45.073Z,1.50
2022-12-03T04:34:30.404Z,1.50
2022-12-03T04:36:57.038Z,1.50
2022-12-03T04:39:23.769Z,1.50
2022-12-03T04:41:50.438Z,1.50
2022-12-03T04:44:35.629Z,1.50
2022-12-03T04:47:13.847Z,1.50
2022-12-03T04:49:43.568Z,1.40
2022-12-03T04:52:11.616Z,1.30
2022-12-03T04:54:38.867Z,1.30
2022-12-03T04:57:06.518Z,1.30
2022-12-03T04:59:33.970Z,1.30
2022-12-03T05:02:00.773Z,1.20
2022-12-03T05:04:27.542Z,1.30
2022-12-03T05:06:54.441Z,1.30
2022-12-03T05:09:21.199Z,1.20
2022-12-03T05:11:47.984Z,1.30
2022-12-03T05:14:14.618Z,1.20
2022-12-03T05:16:41.382Z,1.20
2022-12-03T05:19:08.930Z,1.20
2022-12-03T05:21:35.560Z,1.20
2022-12-03T05:24:02.590Z,1.10
2022-12-03T05:26:29.322Z,1.10
2022-12-03T05:28:56.022Z,1.00
2022-12-03T05:31:22.860Z,1.10
2022-12-03T05:33:49.500Z,1.00
2022-12-03T05:36:16.079Z,1.00
2022-12-03T05:38:42.722Z,1.00
2022-12-03T05:41:28.208Z,1.00
2022-12-03T05:43:55.388Z,1.00
2022-12-03T05:46:22.122Z,1.00
2022-12-03T05:48:48.799Z,1.00
2022-12-03T05:51:15.400Z,1.00
2022-12-03T05:53:42.005Z,1.00
2022-12-03T05:56:08.655Z,1.00
2022-12-03T05:58:35.288Z,0.90
2022-12-03T06:01:01.926Z,1.00
2022-12-03T06:03:28.597Z,1.00
2022-12-03T06:05:55.372Z,1.00
2022-12-03T06:08:21.992Z,1.00
2022-12-03T06:10:48.838Z,0.90
2022-12-03T06:13:15.416Z,0.90
2022-12-03T06:15:43.983Z,1.00
2022-12-03T06:18:11.250Z,1.00
2022-12-03T06:20:37.945Z,1.00
2022-12-03T06:23:04.552Z,1.00
2022-12-03T06:25:31.199Z,1.00
2022-12-03T06:27:57.826Z,1.00
2022-12-03T06:30:24.408Z,1.10
2022-12-03T06:32:51.009Z,1.10
2022-12-03T06:35:17.607Z,1.20
2022-12-03T06:37:44.428Z,1.20
2022-12-03T06:40:11.723Z,1.30
2022-12-03T06:42:38.386Z,1.40
2022-12-03T06:45:05.488Z,1.40
2022-12-03T06:47:32.134Z,1.40
2022-12-03T06:49:58.700Z,1.30
2022-12-03T06:52:25.463Z,1.20
2022-12-03T06:54:52.396Z,1.20
2022-12-03T06:57:19.304Z,1.20
2022-12-03T06:59:46.004Z,1.20
2022-12-03T07:02:12.846Z,1.20
2022-12-03T07:04:44.688Z,1.30
2022-12-03T07:07:12.859Z,1.30
2022-12-03T07:09:39.588Z,1.30
2022-12-03T07:12:06.318Z,1.30
2022-12-03T07:14:32.981Z,1.30
2022-12-03T07:16:59.586Z,1.40
2022-12-03T07:19:32.083Z,1.40
2022-12-03T07:21:59.381Z,1.40
2022-12-03T07:24:25.993Z,1.40
2022-12-03T07:26:52.607Z,1.30
2022-12-03T07:29:19.216Z,1.40
2022-12-03T07:31:45.899Z,1.30
2022-12-03T07:34:12.825Z,1.30
2022-12-03T07:36:39.504Z,1.30
2022-12-03T07:39:06.128Z,1.30
2022-12-03T07:41:32.821Z,1.30
2022-12-03T07:43:59.442Z,1.40
2022-12-03T07:46:26.108Z,1.40
2022-12-03T07:48:52.805Z,1.40
2022-12-03T07:51:19.606Z,1.30
2022-12-03T07:53:46.207Z,1.30
2022-12-03T07:56:12.838Z,1.40
2022-12-03T07:58:39.718Z,1.40
2022-12-03T08:01:06.510Z,1.40
2022-12-03T08:03:33.217Z,1.40
2022-12-03T08:05:59.953Z,1.50
2022-12-03T08:08:26.684Z,1.50
2022-12-03T08:10:53.286Z,1.50
2022-12-03T08:13:19.949Z,1.50
2022-12-03T08:15:46.861Z,1.50
2022-12-03T08:18:18.720Z,1.50
2022-12-03T08:20:47.720Z,1.60
2022-12-03T08:23:17.053Z,1.60
2022-12-03T08:25:45.274Z,1.70
2022-12-03T08:28:19.332Z,1.70
2022-12-03T08:30:58.832Z,1.70
2022-12-03T08:33:35.096Z,1.70
2022-12-03T08:36:24.009Z,1.60
2022-12-03T08:39:17.330Z,1.70
2022-12-03T08:42:02.708Z,1.80
2022-12-03T08:44:34.853Z,1.80
2022-12-03T08:47:22.708Z,1.70
2022-12-03T08:49:57.876Z,1.80
2022-12-03T08:52:31.404Z,1.80
2022-12-03T08:54:58.625Z,1.80
2022-12-03T08:57:27.663Z,1.80
2022-12-03T09:00:11.929Z,1.80
2022-12-03T09:02:45.943Z,1.90
2022-12-03T09:05:32.367Z,1.90
2022-12-03T09:07:59.020Z,2.00
2022-12-03T09:10:25.674Z,2.00
2022-12-03T09:12:52.349Z,2.00
2022-12-03T09:15:18.925Z,2.00
2022-12-03T09:17:45.520Z,2.00
2022-12-03T09:20:12.288Z,1.90
2022-12-03T09:22:38.968Z,1.90
2022-12-03T09:25:06.166Z,2.00
2022-12-03T09:27:32.820Z,1.90
2022-12-03T09:29:59.422Z,1.90
2022-12-03T09:32:26.312Z,1.90
2022-12-03T09:34:53.988Z,1.90
2022-12-03T09:37:22.109Z,2.00
2022-12-03T09:39:48.771Z,2.00
2022-12-03T09:42:15.440Z,2.00
2022-12-03T09:44:42.253Z,1.90
2022-12-03T09:47:09.341Z,2.00
2022-12-03T09:49:38.161Z,1.90
2022-12-03T09:52:06.159Z,1.90
2022-12-03T09:54:33.675Z,1.90
2022-12-03T09:57:02.684Z,1.90
2022-12-03T09:59:34.620Z,2.00
2022-12-03T10:02:02.562Z,1.90
2022-12-03T10:04:30.127Z,2.00
2022-12-03T10:06:58.740Z,2.00
2022-12-03T10:09:28.426Z,1.90
2022-12-03T10:11:57.151Z,2.00
2022-12-03T10:14:24.207Z,2.00
2022-12-03T10:16:51.199Z,2.00
2022-12-03T10:19:23.232Z,2.00
2022-12-03T10:21:50.263Z,2.00
2022-12-03T10:30:55.612Z,1.80
2022-12-03T10:33:28.111Z,2.00
2022-12-03T10:35:54.798Z,2.00
2022-12-03T10:38:22.333Z,2.00
2022-12-03T10:40:50.459Z,2.00
2022-12-03T10:43:21.691Z,2.00
2022-12-03T10:45:49.364Z,2.00
2022-12-03T10:48:30.430Z,2.10
2022-12-03T10:51:23.176Z,2.00
2022-12-03T10:53:50.467Z,2.00
2022-12-03T10:56:27.584Z,2.10
2022-12-03T10:58:54.476Z,2.10
2022-12-03T11:01:26.184Z,2.10
2022-12-03T11:03:56.471Z,2.00
2022-12-03T11:06:23.566Z,2.00
2022-12-03T11:08:57.496Z,2.10
2022-12-03T11:11:31.549Z,2.00
2022-12-03T11:14:03.450Z,2.10
2022-12-03T11:16:39.094Z,2.00
2022-12-03T11:19:17.268Z,2.00
2022-12-03T11:22:10.077Z,2.00
2022-12-03T11:24:39.653Z,2.10
2022-12-03T11:27:17.802Z,2.10
2022-12-03T11:29:58.849Z,2.10
2022-12-03T11:32:43.531Z,2.10
2022-12-03T11:35:24.989Z,2.10
2022-12-03T11:37:52.025Z,2.10
2022-12-03T11:40:18.643Z,2.20
2022-12-03T11:42:47.365Z,2.30
2022-12-03T11:45:16.929Z,2.30
2022-12-03T11:47:46.718Z,2.40
2022-12-03T11:50:22.861Z,2.40
2022-12-03T11:52:54.884Z,2.40
2022-12-03T11:55:31.942Z,2.50
2022-12-03T11:58:04.503Z,2.40
2022-12-03T12:00:31.413Z,2.40
2022-12-03T12:02:58.768Z,2.30
2022-12-03T12:05:33.650Z,2.30
2022-12-03T12:08:02.069Z,2.30
2022-12-03T12:10:45.899Z,2.20
2022-12-03T12:13:36.008Z,2.30
2022-12-03T12:16:08.484Z,2.30
2022-12-03T12:18:52.448Z,2.20
2022-12-03T12:21:42.241Z,2.20
2022-12-03T12:24:51.319Z,2.10
2022-12-03T12:27:37.826Z,2.10
